Time;durP1;ratioP1;P1;durP2;ratioP2;P2;SDS_P1;SDS_P2;PMS_P1;PMS_P2;Temp;Humidity;BMP_temperature;BMP_pressure;BME280_temperature;BME280_humidity;BME280_pressure;Samples;Min_cycle;Max_cycle;Signal;HPM_P1;HPM_P2
2021/09/08 00:00:56;;;;;;;16.23;5.63;;;;;;;;;;5021716;28;20128;-89
2021/09/08 00:03:28;;;;;;;9.07;5.20;;;;;;;;;;5022589;28;20045;-90
2021/09/08 00:06:00;;;;;;;9.43;5.47;;;;;;;;;;5018349;28;20111;-91
2021/09/08 00:08:33;;;;;;;10.60;5.22;;;;;;;;;;5003239;28;20103;-91
2021/09/08 00:11:34;;;;;;;7.75;4.47;;;;;;;;;;5034644;28;20045;-90
2021/09/08 00:14:09;;;;;;;8.90;5.00;;;;;;;;;;5035052;28;20099;-90
2021/09/08 00:16:51;;;;;;;10.82;4.90;;;;;;;;;;5019048;28;20485;-90
2021/09/08 00:19:29;;;;;;;8.23;5.05;;;;;;;;;;5004799;28;20100;-91
2021/09/08 00:22:05;;;;;;;10.20;5.13;;;;;;;;;;4998457;28;20153;-91
2021/09/08 00:24:33;;;;;;;10.45;4.80;;;;;;;;;;5033644;28;20133;-91
2021/09/08 00:27:05;;;;;;;12.55;4.93;;;;;;;;;;5014888;28;20045;-90
2021/09/08 00:29:36;;;;;;;9.38;5.88;;;;;;;;;;5016601;28;20056;-91
2021/09/08 00:32:05;;;;;;;11.13;5.47;;;;;;;;;;4998504;28;20056;-91
2021/09/08 00:34:38;;;;;;;9.15;5.13;;;;;;;;;;5015724;28;20136;-89
2021/09/08 00:37:07;;;;;;;10.75;5.55;;;;;;;;;;5015273;28;20626;-90
2021/09/08 00:39:37;;;;;;;14.30;6.88;;;;;;;;;;5014314;28;20162;-90
2021/09/08 00:42:12;;;;;;;11.27;6.35;;;;;;;;;;5011326;28;20046;-90
2021/09/08 00:44:55;;;;;;;8.35;5.90;;;;;;;;;;5016387;28;20055;-90
2021/09/08 00:47:36;;;;;;;13.32;6.55;;;;;;;;;;5017255;28;20065;-91
2021/09/08 00:50:09;;;;;;;16.40;6.72;;;;;;;;;;5000006;28;20054;-90
2021/09/08 00:52:49;;;;;;;12.98;7.28;;;;;;;;;;4997120;28;20133;-90
2021/09/08 00:55:26;;;;;;;13.23;7.10;;;;;;;;;;5002142;28;20072;-90
2021/09/08 00:57:55;;;;;;;17.65;7.60;;;;;;;;;;5015617;28;20061;-90
2021/09/08 01:00:24;;;;;;;16.25;6.57;;;;;;;;;;5001939;28;20053;-90
2021/09/08 01:02:55;;;;;;;16.83;6.30;;;;;;;;;;5022627;28;20498;-90
2021/09/08 01:06:01;;;;;;;8.15;5.25;;;;;;;;;;5012695;28;20144;-91
2021/09/08 01:08:40;;;;;;;11.48;4.70;;;;;;;;;;5004566;28;20045;-90
2021/09/08 01:11:15;;;;;;;9.27;5.00;;;;;;;;;;5030998;28;20398;-91
2021/09/08 01:13:49;;;;;;;9.98;5.85;;;;;;;;;;5006467;28;20069;-90
2021/09/08 01:16:20;;;;;;;13.50;5.82;;;;;;;;;;5019463;28;20124;-91
2021/09/08 01:19:04;;;;;;;12.40;5.20;;;;;;;;;;5014988;28;20096;-90
2021/09/08 01:21:41;;;;;;;13.57;5.13;;;;;;;;;;5002495;28;20064;-91
2021/09/08 01:24:14;;;;;;;17.23;5.60;;;;;;;;;;5035699;28;20061;-91
2021/09/08 01:26:55;;;;;;;10.95;5.85;;;;;;;;;;5018210;28;20140;-91
2021/09/08 01:29:25;;;;;;;10.52;5.38;;;;;;;;;;5016063;28;20763;-91
2021/09/08 01:31:57;;;;;;;9.77;5.97;;;;;;;;;;5035681;28;20064;-91
2021/09/08 01:34:30;;;;;;;8.27;4.80;;;;;;;;;;5025968;28;20499;-92
2021/09/08 01:37:01;;;;;;;8.95;4.95;;;;;;;;;;5035099;28;20045;-91
2021/09/08 01:39:50;;;;;;;6.73;4.17;;;;;;;;;;5021843;28;20149;-91
2021/09/08 01:42:25;;;;;;;10.27;4.85;;;;;;;;;;5015896;28;20081;-91
2021/09/08 01:44:54;;;;;;;9.05;5.03;;;;;;;;;;5000855;28;20049;-91
2021/09/08 01:47:29;;;;;;;9.80;4.97;;;;;;;;;;5019353;28;20507;-91
2021/09/08 01:50:04;;;;;;;11.07;5.35;;;;;;;;;;5034570;28;20401;-91
2021/09/08 01:52:33;;;;;;;10.40;4.82;;;;;;;;;;5011667;28;20053;-91
2021/09/08 01:55:19;;;;;;;9.23;4.72;;;;;;;;;;4997271;28;20124;-91
2021/09/08 01:57:56;;;;;;;7.90;4.57;;;;;;;;;;5005166;28;20053;-91
2021/09/08 02:00:26;;;;;;;10.05;5.15;;;;;;;;;;5018187;28;20397;-92
2021/09/08 02:03:03;;;;;;;9.88;4.85;;;;;;;;;;5019693;28;20096;-92
2021/09/08 02:05:35;;;;;;;14.50;5.10;;;;;;;;;;5018153;28;20080;-91
2021/09/08 02:08:09;;;;;;;8.15;4.63;;;;;;;;;;5017172;28;20076;-91
2021/09/08 02:10:39;;;;;;;7.97;4.45;;;;;;;;;;5035523;28;20084;-91
2021/09/08 02:13:11;;;;;;;9.18;4.80;;;;;;;;;;5014935;28;20045;-91
2021/09/08 02:15:40;;;;;;;10.93;5.13;;;;;;;;;;5015146;28;20103;-91
2021/09/08 02:18:21;;;;;;;11.48;5.85;;;;;;;;;;5015348;28;20049;-91
2021/09/08 02:20:54;;;;;;;12.40;6.40;;;;;;;;;;5015738;28;20050;-92
2021/09/08 02:23:24;;;;;;;11.43;6.18;;;;;;;;;;4998627;28;20130;-91
2021/09/08 02:25:53;;;;;;;10.07;6.40;;;;;;;;;;5011706;28;20057;-92
2021/09/08 02:28:27;;;;;;;10.23;6.15;;;;;;;;;;5019948;28;20107;-92
2021/09/08 02:31:01;;;;;;;13.45;5.38;;;;;;;;;;5007789;28;20042;-92
2021/09/08 02:33:32;;;;;;;11.90;5.60;;;;;;;;;;5005990;28;20046;-90
2021/09/08 02:36:08;;;;;;;12.85;5.88;;;;;;;;;;5007945;28;20105;-92
2021/09/08 02:38:49;;;;;;;9.68;5.78;;;;;;;;;;5038337;28;20037;-92
2021/09/08 02:45:18;;;;;;;8.40;5.55;;;;;;;;;;5056940;28;20033;-95
2021/09/08 02:47:48;;;;;;;13.35;5.60;;;;;;;;;;5044793;28;20136;-95
2021/09/08 02:54:03;;;;;;;10.30;5.32;;;;;;;;;;5037194;28;20569;-95
2021/09/08 02:56:36;;;;;;;11.75;6.13;;;;;;;;;;5018154;28;20088;-95
2021/09/08 03:02:37;;;;;;;15.13;7.90;;;;;;;;;;5036774;28;20099;-95
2021/09/08 03:05:27;;;;;;;14.20;7.88;;;;;;;;;;5019807;28;20053;-94
2021/09/08 03:11:31;;;;;;;18.98;9.80;;;;;;;;;;5036509;28;20053;-95
2021/09/08 03:14:18;;;;;;;17.38;9.43;;;;;;;;;;5015532;28;20092;-95
2021/09/08 03:20:26;;;;;;;13.48;8.32;;;;;;;;;;5036976;28;20092;-95
2021/09/08 03:23:20;;;;;;;12.77;7.72;;;;;;;;;;5023496;28;20493;-94
2021/09/08 03:26:03;;;;;;;14.45;8.48;;;;;;;;;;5035884;28;20402;-95
2021/09/08 03:32:10;;;;;;;10.70;6.85;;;;;;;;;;5037527;28;20048;-96
2021/09/08 03:34:55;;;;;;;13.32;6.25;;;;;;;;;;5023863;28;20103;-96
2021/09/08 03:37:51;;;;;;;14.40;7.03;;;;;;;;;;5036526;28;20060;-95
2021/09/08 03:43:59;;;;;;;10.60;6.93;;;;;;;;;;5035842;28;20087;-95
2021/09/08 03:50:07;;;;;;;13.93;6.55;;;;;;;;;;5035515;28;20052;-95
2021/09/08 03:56:13;;;;;;;10.88;6.93;;;;;;;;;;5035550;28;20052;-95
2021/09/08 03:59:00;;;;;;;15.43;7.43;;;;;;;;;;5018512;28;20370;-94
2021/09/08 04:01:35;;;;;;;;;;;;;;;;;;5018755;28;20590;-95
2021/09/08 04:04:09;;;;;;;11.15;6.55;;;;;;;;;;5018146;28;19921;-95
2021/09/08 04:10:23;;;;;;;9.73;6.30;;;;;;;;;;5035358;28;20075;-94
2021/09/08 04:13:15;;;;;;;11.70;6.60;;;;;;;;;;5018724;28;20053;-95
2021/09/08 04:16:32;;;;;;;15.25;7.78;;;;;;;;;;5035698;28;20057;-95
2021/09/08 04:19:31;;;;;;;10.65;6.45;;;;;;;;;;5013611;28;20053;-94
2021/09/08 04:29:14;;;;;;;16.45;7.38;;;;;;;;;;5013857;28;20037;-95
2021/09/08 04:32:00;;;;;;;13.60;6.75;;;;;;;;;;4995735;28;20061;-93
2021/09/08 04:34:46;;;;;;;8.93;6.20;;;;;;;;;;4999691;28;20149;-94
2021/09/08 04:37:17;;;;;;;16.92;6.88;;;;;;;;;;5021932;28;20477;-96
2021/09/08 04:40:06;;;;;;;16.08;7.00;;;;;;;;;;5033509;28;20076;-96
2021/09/08 04:46:10;;;;;;;20.67;8.20;;;;;;;;;;5044413;28;20040;-95
2021/09/08 04:52:12;;;;;;;17.38;7.05;;;;;;;;;;5042633;28;20044;-95
2021/09/08 04:54:40;;;;;;;12.18;6.75;;;;;;;;;;5023216;28;20045;-95
2021/09/08 04:57:19;;;;;;;16.23;7.25;;;;;;;;;;5035225;28;20050;-96
2021/09/08 04:59:51;;;;;;;11.82;6.47;;;;;;;;;;5023617;28;20055;-95
2021/09/08 05:02:19;;;;;;;16.88;8.05;;;;;;;;;;5024834;28;20410;-95
2021/09/08 05:04:50;;;;;;;23.55;7.82;;;;;;;;;;5026689;28;20115;-95
2021/09/08 05:07:17;;;;;;;16.05;8.07;;;;;;;;;;5021813;28;20054;-96
2021/09/08 05:09:45;;;;;;;20.30;7.97;;;;;;;;;;5022519;28;20065;-95
2021/09/08 05:15:36;;;;;;;20.80;9.35;;;;;;;;;;5038457;28;20497;-95
2021/09/08 05:18:05;;;;;;;19.60;8.50;;;;;;;;;;5021411;28;20104;-94
2021/09/08 05:24:03;;;;;;;19.42;9.88;;;;;;;;;;5038429;28;20158;-95
2021/09/08 05:26:31;;;;;;;23.23;10.25;;;;;;;;;;5023656;28;20061;-95
2021/09/08 05:35:52;;;;;;;20.63;10.52;;;;;;;;;;5043502;28;20056;-95
2021/09/08 05:38:20;;;;;;;23.42;10.85;;;;;;;;;;5042396;28;20050;-95
2021/09/08 05:40:51;;;;;;;22.45;10.32;;;;;;;;;;5026333;28;20049;-96
2021/09/08 05:43:25;;;;;;;29.98;11.27;;;;;;;;;;5041753;28;20042;-96
2021/09/08 05:45:52;;;;;;;31.20;11.02;;;;;;;;;;5024212;28;20470;-96
2021/09/08 05:48:20;;;;;;;24.00;11.27;;;;;;;;;;5024460;28;20060;-95
2021/09/08 05:50:48;;;;;;;29.23;12.15;;;;;;;;;;5023862;28;20084;-95
2021/09/08 05:53:16;;;;;;;34.40;11.13;;;;;;;;;;5024551;28;20410;-95
2021/09/08 05:55:43;;;;;;;20.75;11.93;;;;;;;;;;5024260;28;20057;-95
2021/09/08 05:58:11;;;;;;;27.17;12.68;;;;;;;;;;5023898;28;20049;-95
2021/09/08 06:00:39;;;;;;;24.42;11.48;;;;;;;;;;5024283;28;20041;-95
2021/09/08 06:03:06;;;;;;;19.08;10.85;;;;;;;;;;5022667;28;20049;-95
2021/09/08 06:05:34;;;;;;;22.33;12.15;;;;;;;;;;5020875;28;20053;-95
2021/09/08 06:08:02;;;;;;;23.20;12.20;;;;;;;;;;5021236;28;20421;-95
2021/09/08 06:10:29;;;;;;;27.42;12.05;;;;;;;;;;5021102;28;20050;-96
2021/09/08 06:12:58;;;;;;;23.58;12.45;;;;;;;;;;5038137;28;20076;-95
2021/09/08 06:15:26;;;;;;;24.38;12.30;;;;;;;;;;5020303;28;20069;-95
2021/09/08 06:17:53;;;;;;;34.97;13.40;;;;;;;;;;5020298;28;20521;-95
2021/09/08 06:20:21;;;;;;;31.42;12.65;;;;;;;;;;5020953;28;20501;-95
2021/09/08 06:22:48;;;;;;;28.38;12.30;;;;;;;;;;5020787;28;20145;-95
2021/09/08 06:25:16;;;;;;;22.67;12.95;;;;;;;;;;5021025;28;20064;-96
2021/09/08 06:31:07;;;;;;;25.42;12.45;;;;;;;;;;5037126;28;20040;-95
2021/09/08 06:33:34;;;;;;;25.05;12.77;;;;;;;;;;5019250;28;20103;-95
2021/09/08 06:36:02;;;;;;;20.27;12.18;;;;;;;;;;5019860;28;20057;-95
2021/09/08 06:38:29;;;;;;;23.83;12.88;;;;;;;;;;5019746;28;20041;-94
2021/09/08 06:40:58;;;;;;;27.08;12.73;;;;;;;;;;5021298;28;20470;-95
2021/09/08 06:43:26;;;;;;;20.67;11.98;;;;;;;;;;5039109;28;20049;-92
2021/09/08 06:45:53;;;;;;;23.95;11.93;;;;;;;;;;5039427;28;20056;-93
2021/09/08 06:48:22;;;;;;;24.05;11.65;;;;;;;;;;5039362;28;20045;-95
2021/09/08 06:50:49;;;;;;;22.42;11.25;;;;;;;;;;5039176;28;20041;-93
2021/09/08 06:53:17;;;;;;;22.17;10.93;;;;;;;;;;5039962;28;20400;-93
2021/09/08 06:55:44;;;;;;;27.20;10.90;;;;;;;;;;5022855;28;20041;-94
2021/09/08 06:58:11;;;;;;;24.05;11.75;;;;;;;;;;5038863;28;20466;-94
2021/09/08 07:00:39;;;;;;;21.83;10.48;;;;;;;;;;5033024;28;20100;-94
2021/09/08 07:03:07;;;;;;;26.02;11.63;;;;;;;;;;5019672;28;20053;-93
2021/09/08 07:05:35;;;;;;;18.13;11.00;;;;;;;;;;5036814;28;20059;-94
2021/09/08 07:08:05;;;;;;;20.95;11.20;;;;;;;;;;5033574;28;20057;-93
2021/09/08 07:10:32;;;;;;;22.60;11.75;;;;;;;;;;5038709;28;20398;-94
2021/09/08 07:12:59;;;;;;;16.38;10.65;;;;;;;;;;5038368;28;20044;-93
2021/09/08 07:15:27;;;;;;;19.33;10.60;;;;;;;;;;5039217;28;20537;-92
2021/09/08 07:17:54;;;;;;;22.48;11.45;;;;;;;;;;5024088;28;20056;-94
2021/09/08 07:20:23;;;;;;;22.42;10.90;;;;;;;;;;5018851;28;20049;-94
2021/09/08 07:22:50;;;;;;;22.30;11.07;;;;;;;;;;5018655;28;20056;-94
2021/09/08 07:25:17;;;;;;;19.42;10.30;;;;;;;;;;5018523;28;20089;-94
2021/09/08 07:27:45;;;;;;;25.05;10.23;;;;;;;;;;5018770;28;20131;-94
2021/09/08 07:30:12;;;;;;;23.55;10.85;;;;;;;;;;5018701;28;20081;-94
2021/09/08 07:32:39;;;;;;;18.25;10.02;;;;;;;;;;5018209;28;20494;-94
2021/09/08 07:35:07;;;;;;;23.38;10.75;;;;;;;;;;5018212;28;20099;-93
2021/09/08 07:37:37;;;;;;;23.75;10.98;;;;;;;;;;5018828;28;20132;-94
2021/09/08 07:43:33;;;;;;;18.20;11.10;;;;;;;;;;5035719;28;20083;-93
2021/09/08 07:46:01;;;;;;;26.23;12.23;;;;;;;;;;5014886;28;20060;-93
2021/09/08 07:48:28;;;;;;;19.95;11.93;;;;;;;;;;5017277;28;20049;-94
2021/09/08 07:50:57;;;;;;;25.15;12.40;;;;;;;;;;5051744;28;20050;-93
2021/09/08 07:53:24;;;;;;;21.48;11.95;;;;;;;;;;5051566;28;20045;-94
2021/09/08 07:55:51;;;;;;;21.55;11.93;;;;;;;;;;5051601;28;20056;-94
2021/09/08 07:58:19;;;;;;;25.52;11.55;;;;;;;;;;5050824;28;20049;-93
2021/09/08 08:00:46;;;;;;;21.30;12.00;;;;;;;;;;5018405;28;20103;-93
2021/09/08 08:03:13;;;;;;;26.80;12.75;;;;;;;;;;5018186;28;20049;-94
2021/09/08 08:05:41;;;;;;;26.15;12.25;;;;;;;;;;5018370;28;20073;-93
2021/09/08 08:08:08;;;;;;;26.45;12.63;;;;;;;;;;5017857;28;20061;-93
2021/09/08 08:10:36;;;;;;;24.38;12.13;;;;;;;;;;5017862;28;20076;-93
2021/09/08 08:13:04;;;;;;;24.33;12.63;;;;;;;;;;5017832;28;20045;-87
2021/09/08 08:15:31;;;;;;;22.33;11.38;;;;;;;;;;5013912;28;20107;-88
2021/09/08 08:17:59;;;;;;;23.80;13.25;;;;;;;;;;5012931;28;20046;-87
2021/09/08 08:20:27;;;;;;;20.40;12.18;;;;;;;;;;5028703;28;20053;-87
2021/09/08 08:22:55;;;;;;;23.73;11.88;;;;;;;;;;5015900;28;20469;-88
2021/09/08 08:25:30;;;;;;;23.98;12.05;;;;;;;;;;5012051;28;20117;-86
2021/09/08 08:28:00;;;;;;;25.95;12.63;;;;;;;;;;5003132;28;20057;-86
2021/09/08 08:30:27;;;;;;;33.53;12.52;;;;;;;;;;5024286;28;20049;-86
2021/09/08 08:32:55;;;;;;;20.67;11.95;;;;;;;;;;5013668;28;20073;-86
2021/09/08 08:35:22;;;;;;;28.52;12.20;;;;;;;;;;5030960;28;20107;-86
2021/09/08 08:37:51;;;;;;;26.92;12.85;;;;;;;;;;5012254;28;20100;-86
2021/09/08 08:40:20;;;;;;;17.77;11.50;;;;;;;;;;5040333;28;20045;-86
2021/09/08 08:42:47;;;;;;;19.10;10.15;;;;;;;;;;5015296;28;20103;-87
2021/09/08 08:45:15;;;;;;;21.88;10.35;;;;;;;;;;5031542;28;20136;-86
2021/09/08 08:47:42;;;;;;;23.65;10.27;;;;;;;;;;5013788;28;20398;-87
2021/09/08 08:50:14;;;;;;;17.45;10.18;;;;;;;;;;5009677;28;20408;-86
2021/09/08 08:52:41;;;;;;;19.55;10.13;;;;;;;;;;5015058;28;20058;-86
2021/09/08 08:55:10;;;;;;;27.63;10.20;;;;;;;;;;5015272;28;20548;-88
2021/09/08 08:57:39;;;;;;;14.57;8.05;;;;;;;;;;5016696;28;20054;-86
2021/09/08 09:00:06;;;;;;;18.65;9.55;;;;;;;;;;5033670;28;20777;-85
2021/09/08 09:02:34;;;;;;;23.33;9.40;;;;;;;;;;5015753;28;20413;-86
2021/09/08 09:05:03;;;;;;;15.57;9.43;;;;;;;;;;5018734;28;20129;-86
2021/09/08 09:07:31;;;;;;;17.48;10.00;;;;;;;;;;5019166;28;20537;-86
2021/09/08 09:10:04;;;;;;;19.85;11.07;;;;;;;;;;5042543;28;20068;-87
2021/09/08 09:12:38;;;;;;;24.15;10.93;;;;;;;;;;5032674;28;20049;-86
2021/09/08 09:15:07;;;;;;;19.33;9.63;;;;;;;;;;5019572;28;20052;-86
2021/09/08 09:17:35;;;;;;;23.00;11.07;;;;;;;;;;5015386;28;20410;-86
2021/09/08 09:20:11;;;;;;;19.67;11.73;;;;;;;;;;5016429;28;20486;-86
2021/09/08 09:23:04;;;;;;;19.92;10.32;;;;;;;;;;5018875;28;20055;-87
2021/09/08 09:25:35;;;;;;;20.40;9.43;;;;;;;;;;5012198;28;20062;-86
2021/09/08 09:28:04;;;;;;;15.98;8.95;;;;;;;;;;4999162;28;20397;-86
2021/09/08 09:30:34;;;;;;;17.48;9.55;;;;;;;;;;5033945;28;20394;-86
2021/09/08 09:33:28;;;;;;;15.18;9.07;;;;;;;;;;5019553;28;20068;-86
2021/09/08 09:35:55;;;;;;;19.27;9.90;;;;;;;;;;5016936;28;20756;-86
2021/09/08 09:38:23;;;;;;;21.85;10.45;;;;;;;;;;5022572;28;20068;-86
2021/09/08 09:40:50;;;;;;;17.10;9.77;;;;;;;;;;5016692;28;20498;-86
2021/09/08 09:43:18;;;;;;;14.75;8.93;;;;;;;;;;5034238;28;20053;-86
2021/09/08 09:45:47;;;;;;;12.90;8.25;;;;;;;;;;5026843;28;20050;-86
2021/09/08 09:48:14;;;;;;;12.25;8.18;;;;;;;;;;5031668;28;20053;-86
2021/09/08 09:50:46;;;;;;;17.65;7.93;;;;;;;;;;5014505;28;20117;-86
2021/09/08 09:53:18;;;;;;;14.20;8.75;;;;;;;;;;5006791;28;20053;-86
2021/09/08 09:55:45;;;;;;;19.88;8.77;;;;;;;;;;5030186;28;20129;-86
2021/09/08 09:58:12;;;;;;;15.27;8.68;;;;;;;;;;5034025;28;20128;-86
2021/09/08 10:00:41;;;;;;;12.48;8.32;;;;;;;;;;5033001;28;20652;-86
2021/09/08 10:03:09;;;;;;;14.27;8.55;;;;;;;;;;5033398;28;20052;-86
2021/09/08 10:05:37;;;;;;;14.23;7.70;;;;;;;;;;5033871;28;20136;-85
2021/09/08 10:08:04;;;;;;;10.30;7.35;;;;;;;;;;5016918;28;20448;-85
2021/09/08 10:10:34;;;;;;;19.20;8.43;;;;;;;;;;5016641;28;20514;-86
2021/09/08 10:13:04;;;;;;;13.80;7.47;;;;;;;;;;5023677;28;20049;-86
2021/09/08 10:15:33;;;;;;;12.02;7.65;;;;;;;;;;4996862;28;20782;-86
2021/09/08 10:18:06;;;;;;;13.43;8.55;;;;;;;;;;5029858;28;20128;-86
2021/09/08 10:20:34;;;;;;;16.75;8.43;;;;;;;;;;5016373;28;20050;-86
2021/09/08 10:23:08;;;;;;;13.13;7.57;;;;;;;;;;5027707;28;20104;-86
2021/09/08 10:25:36;;;;;;;15.27;7.40;;;;;;;;;;5032100;28;20045;-86
2021/09/08 10:28:06;;;;;;;10.18;7.60;;;;;;;;;;5015052;28;20131;-86
2021/09/08 10:30:37;;;;;;;11.10;7.90;;;;;;;;;;5016301;28;20049;-85
2021/09/08 10:33:06;;;;;;;10.02;7.25;;;;;;;;;;5015102;28;20046;-86
2021/09/08 10:35:39;;;;;;;15.38;8.43;;;;;;;;;;5015472;28;20045;-86
2021/09/08 10:38:13;;;;;;;13.38;7.72;;;;;;;;;;5021044;28;20052;-86
2021/09/08 10:40:44;;;;;;;24.63;9.50;;;;;;;;;;5020482;28;20046;-85
2021/09/08 10:43:12;;;;;;;13.45;7.70;;;;;;;;;;5025785;28;20049;-85
2021/09/08 10:45:50;;;;;;;16.92;8.38;;;;;;;;;;5015444;28;20111;-85
2021/09/08 10:48:34;;;;;;;15.18;8.32;;;;;;;;;;5009412;28;20505;-85
2021/09/08 10:51:03;;;;;;;19.27;7.40;;;;;;;;;;5019167;28;20059;-85
2021/09/08 10:53:32;;;;;;;31.35;9.27;;;;;;;;;;5035085;28;20505;-87
2021/09/08 10:56:00;;;;;;;12.43;7.63;;;;;;;;;;5015671;28;20046;-86
2021/09/08 10:58:47;;;;;;;14.98;7.50;;;;;;;;;;5014611;28;20049;-87
2021/09/08 11:01:15;;;;;;;15.27;8.05;;;;;;;;;;5012078;28;20042;-86
2021/09/08 11:03:45;;;;;;;13.98;7.20;;;;;;;;;;5001878;28;20049;-86
2021/09/08 11:06:12;;;;;;;13.40;7.60;;;;;;;;;;5015027;28;20053;-87
2021/09/08 11:08:40;;;;;;;16.58;7.15;;;;;;;;;;5016019;28;20123;-87
2021/09/08 11:11:10;;;;;;;15.95;7.95;;;;;;;;;;5029827;28;20076;-87
2021/09/08 11:13:39;;;;;;;13.00;7.03;;;;;;;;;;5022249;28;20111;-87
2021/09/08 11:16:37;;;;;;;13.48;7.00;;;;;;;;;;5015613;28;20478;-86
2021/09/08 11:19:10;;;;;;;11.85;7.47;;;;;;;;;;4997124;28;20060;-87
2021/09/08 11:21:38;;;;;;;34.17;9.20;;;;;;;;;;5018970;28;20490;-86
2021/09/08 11:24:08;;;;;;;13.85;8.07;;;;;;;;;;5009246;28;20049;-87
2021/09/08 11:26:38;;;;;;;12.00;7.20;;;;;;;;;;5003624;28;20053;-86
2021/09/08 11:29:14;;;;;;;12.35;7.38;;;;;;;;;;5015664;28;20429;-87
2021/09/08 11:31:42;;;;;;;13.38;7.18;;;;;;;;;;5033839;28;20056;-86
2021/09/08 11:34:22;;;;;;;17.58;7.18;;;;;;;;;;5034210;28;20054;-88
2021/09/08 11:36:50;;;;;;;11.57;7.05;;;;;;;;;;5060284;28;20095;-86
2021/09/08 11:39:18;;;;;;;10.93;6.65;;;;;;;;;;5028532;28;20080;-88
2021/09/08 11:41:53;;;;;;;12.13;7.20;;;;;;;;;;5023522;28;20050;-86
2021/09/08 11:44:20;;;;;;;11.00;6.97;;;;;;;;;;5014477;28;20069;-87
2021/09/08 11:46:47;;;;;;;33.78;25.80;;;;;;;;;;5015172;28;20057;-87
2021/09/08 11:49:15;;;;;;;11.80;6.53;;;;;;;;;;5017230;28;20053;-86
2021/09/08 11:51:45;;;;;;;15.20;7.45;;;;;;;;;;5015265;28;20041;-86
2021/09/08 11:54:19;;;;;;;14.45;6.53;;;;;;;;;;5031736;28;20136;-86
2021/09/08 11:56:53;;;;;;;12.93;6.68;;;;;;;;;;5014246;28;20045;-87
2021/09/08 11:59:31;;;;;;;9.60;6.55;;;;;;;;;;5015118;28;20057;-87
2021/09/08 12:01:59;;;;;;;61.10;9.77;;;;;;;;;;5015231;28;20768;-87
2021/09/08 12:04:28;;;;;;;10.65;6.72;;;;;;;;;;5013832;28;20414;-87
2021/09/08 12:06:55;;;;;;;13.18;6.80;;;;;;;;;;5015092;28;20127;-87
2021/09/08 12:09:30;;;;;;;11.77;6.28;;;;;;;;;;5017334;28;20158;-86
2021/09/08 12:11:59;;;;;;;13.00;6.15;;;;;;;;;;5022695;28;20049;-86
2021/09/08 12:14:28;;;;;;;10.90;6.85;;;;;;;;;;5017074;28;20041;-87
2021/09/08 12:16:57;;;;;;;21.63;6.57;;;;;;;;;;5013791;28;20046;-87
2021/09/08 12:19:34;;;;;;;10.20;6.20;;;;;;;;;;5014573;28;20069;-86
2021/09/08 12:22:06;;;;;;;17.00;6.60;;;;;;;;;;5013938;28;20779;-86
2021/09/08 12:24:55;;;;;;;15.95;7.05;;;;;;;;;;5014046;28;20062;-86
2021/09/08 12:27:25;;;;;;;9.73;6.28;;;;;;;;;;5027100;28;20084;-87
2021/09/08 12:29:54;;;;;;;9.68;6.22;;;;;;;;;;5014146;28;20461;-86
2021/09/08 12:32:22;;;;;;;12.30;7.07;;;;;;;;;;5014009;28;20121;-87
2021/09/08 12:34:51;;;;;;;12.45;7.28;;;;;;;;;;5014067;28;20258;-87
2021/09/08 12:37:22;;;;;;;13.90;6.78;;;;;;;;;;5014220;28;20050;-86
2021/09/08 12:39:50;;;;;;;12.02;6.68;;;;;;;;;;5015153;28;20397;-86
2021/09/08 12:42:22;;;;;;;11.55;6.93;;;;;;;;;;5026885;28;20096;-87
2021/09/08 12:44:51;;;;;;;13.65;6.85;;;;;;;;;;5014506;28;20049;-87
2021/09/08 12:47:21;;;;;;;16.60;7.38;;;;;;;;;;5013529;28;20050;-87
2021/09/08 12:49:49;;;;;;;15.55;6.72;;;;;;;;;;5014997;28;20076;-87
2021/09/08 12:52:20;;;;;;;15.43;6.60;;;;;;;;;;5014137;28;20765;-87
2021/09/08 12:54:48;;;;;;;15.20;7.43;;;;;;;;;;5015026;28;20612;-87
2021/09/08 12:57:16;;;;;;;8.60;6.25;;;;;;;;;;5018341;28;20049;-87
2021/09/08 12:59:44;;;;;;;12.52;6.47;;;;;;;;;;5035274;28;20055;-87
2021/09/08 13:02:13;;;;;;;11.73;6.63;;;;;;;;;;5017521;28;20415;-87
2021/09/08 13:04:42;;;;;;;9.98;6.43;;;;;;;;;;5017343;28;20057;-87
2021/09/08 13:07:09;;;;;;;13.95;6.25;;;;;;;;;;5018131;28;20490;-87
2021/09/08 13:09:38;;;;;;;9.93;5.75;;;;;;;;;;5022757;28;20146;-87
2021/09/08 13:12:06;;;;;;;11.63;7.10;;;;;;;;;;5046356;28;20546;-87
2021/09/08 13:14:39;;;;;;;10.35;6.70;;;;;;;;;;5024639;28;20045;-86
2021/09/08 13:17:07;;;;;;;10.82;6.80;;;;;;;;;;5022005;28;20716;-87
2021/09/08 13:19:34;;;;;;;11.98;6.45;;;;;;;;;;5017975;28;20049;-87
2021/09/08 13:22:04;;;;;;;10.40;6.85;;;;;;;;;;5018055;28;20760;-87
2021/09/08 13:24:36;;;;;;;8.75;6.72;;;;;;;;;;5024389;28;20699;-86
2021/09/08 13:27:05;;;;;;;11.25;6.20;;;;;;;;;;5047019;28;20045;-87
2021/09/08 13:29:34;;;;;;;14.07;6.57;;;;;;;;;;5020798;28;20049;-86
2021/09/08 13:32:03;;;;;;;14.57;6.22;;;;;;;;;;4999955;28;20046;-86
2021/09/08 13:34:31;;;;;;;10.88;6.38;;;;;;;;;;5026840;28;20132;-86
2021/09/08 13:36:58;;;;;;;15.52;6.72;;;;;;;;;;5018895;28;20053;-86
2021/09/08 13:39:25;;;;;;;13.45;6.60;;;;;;;;;;5025433;28;20834;-87
2021/09/08 13:41:54;;;;;;;13.05;6.78;;;;;;;;;;5029450;28;20076;-87
2021/09/08 13:44:30;;;;;;;10.82;6.75;;;;;;;;;;5022481;28;20053;-88
2021/09/08 13:46:58;;;;;;;18.10;7.13;;;;;;;;;;5017966;28;20056;-87
2021/09/08 13:49:25;;;;;;;9.02;5.95;;;;;;;;;;5025316;28;20077;-87
2021/09/08 13:51:53;;;;;;;11.55;5.97;;;;;;;;;;5017162;28;20095;-86
2021/09/08 13:54:21;;;;;;;12.00;5.97;;;;;;;;;;5016505;28;20107;-87
2021/09/08 13:56:49;;;;;;;8.13;5.95;;;;;;;;;;5016836;28;20049;-87
2021/09/08 13:59:17;;;;;;;11.30;7.00;;;;;;;;;;5017203;28;20053;-87
2021/09/08 14:01:45;;;;;;;9.60;6.75;;;;;;;;;;5034077;28;20653;-87
2021/09/08 14:04:12;;;;;;;12.00;5.93;;;;;;;;;;5016850;28;20050;-87
2021/09/08 14:06:43;;;;;;;11.25;5.75;;;;;;;;;;5033800;28;20696;-86
2021/09/08 14:09:19;;;;;;;12.80;6.50;;;;;;;;;;5040162;28;20075;-87
2021/09/08 14:11:47;;;;;;;11.88;5.97;;;;;;;;;;5029392;28;20075;-86
2021/09/08 14:14:15;;;;;;;11.23;6.28;;;;;;;;;;5037000;28;20045;-87
2021/09/08 14:16:49;;;;;;;10.23;6.30;;;;;;;;;;5029598;28;20083;-87
2021/09/08 14:19:22;;;;;;;8.93;6.35;;;;;;;;;;5034938;28;20765;-88
2021/09/08 14:21:57;;;;;;;10.63;6.05;;;;;;;;;;5018197;28;20053;-88
2021/09/08 14:24:26;;;;;;;17.02;6.45;;;;;;;;;;5013261;28;20056;-88
2021/09/08 14:26:55;;;;;;;13.32;6.28;;;;;;;;;;5013799;28;20060;-87
2021/09/08 14:29:23;;;;;;;17.20;6.53;;;;;;;;;;5025623;28;20064;-88
2021/09/08 14:31:50;;;;;;;9.57;6.40;;;;;;;;;;5016146;28;20084;-87
2021/09/08 14:34:17;;;;;;;11.90;6.32;;;;;;;;;;5008144;28;20058;-87
2021/09/08 14:36:45;;;;;;;9.85;6.43;;;;;;;;;;5015871;28;20108;-88
2021/09/08 14:39:13;;;;;;;10.15;6.35;;;;;;;;;;5036018;28;20053;-87
2021/09/08 14:41:41;;;;;;;17.83;7.78;;;;;;;;;;5024293;28;20099;-87
2021/09/08 14:44:09;;;;;;;12.10;6.80;;;;;;;;;;5043799;28;20076;-87
2021/09/08 14:46:38;;;;;;;16.48;7.47;;;;;;;;;;5015493;28;20061;-87
2021/09/08 14:49:05;;;;;;;19.65;7.72;;;;;;;;;;5015489;28;20064;-87
2021/09/08 14:51:33;;;;;;;13.95;7.57;;;;;;;;;;5015427;28;20053;-87
2021/09/08 14:54:02;;;;;;;12.13;7.55;;;;;;;;;;5024797;28;20163;-88
2021/09/08 14:56:30;;;;;;;11.70;6.82;;;;;;;;;;4997329;28;20553;-87
2021/09/08 14:58:59;;;;;;;9.70;6.80;;;;;;;;;;5015858;28;20049;-88
2021/09/08 15:01:27;;;;;;;12.85;7.18;;;;;;;;;;5014736;28;20061;-87
2021/09/08 15:03:54;;;;;;;12.93;6.82;;;;;;;;;;5012854;28;20088;-88
2021/09/08 15:06:22;;;;;;;12.65;6.00;;;;;;;;;;5012274;28;20075;-88
2021/09/08 15:08:50;;;;;;;16.33;8.55;;;;;;;;;;5017247;28;20457;-88
2021/09/08 15:11:20;;;;;;;10.27;6.47;;;;;;;;;;5017407;28;20064;-88
2021/09/08 15:13:48;;;;;;;9.23;6.05;;;;;;;;;;5041578;28;20049;-88
2021/09/08 15:16:21;;;;;;;12.30;6.80;;;;;;;;;;5017078;28;20045;-87
2021/09/08 15:18:48;;;;;;;12.07;6.68;;;;;;;;;;5028561;28;20065;-87
2021/09/08 15:21:21;;;;;;;19.00;7.53;;;;;;;;;;5015024;28;20046;-87
2021/09/08 15:23:48;;;;;;;13.20;6.72;;;;;;;;;;5021501;28;20049;-88
2021/09/08 15:26:19;;;;;;;32.78;8.98;;;;;;;;;;5015091;28;20056;-88
2021/09/08 15:28:48;;;;;;;22.48;6.63;;;;;;;;;;5015284;28;20057;-88
2021/09/08 15:31:19;;;;;;;11.18;6.75;;;;;;;;;;5022599;28;20474;-88
2021/09/08 15:33:51;;;;;;;13.38;7.25;;;;;;;;;;5019039;28;20049;-88
2021/09/08 15:36:22;;;;;;;14.48;6.95;;;;;;;;;;5012721;28;20132;-87
2021/09/08 15:38:50;;;;;;;13.13;6.25;;;;;;;;;;5008529;28;20663;-87
2021/09/08 15:41:18;;;;;;;10.35;6.28;;;;;;;;;;5024126;28;20044;-87
2021/09/08 15:43:46;;;;;;;451.42;81.35;;;;;;;;;;5027287;28;20107;-87
2021/09/08 15:46:14;;;;;;;482.52;91.85;;;;;;;;;;5018029;28;20099;-88
2021/09/08 15:48:41;;;;;;;11.35;7.05;;;;;;;;;;5016630;28;20757;-88
2021/09/08 15:51:08;;;;;;;16.30;7.22;;;;;;;;;;5014429;28;20084;-88
2021/09/08 15:53:36;;;;;;;12.98;7.20;;;;;;;;;;5013884;28;20067;-88
2021/09/08 15:56:03;;;;;;;16.30;7.93;;;;;;;;;;5015175;28;20067;-88
2021/09/08 15:58:31;;;;;;;13.18;7.32;;;;;;;;;;5013520;28;20052;-88
2021/09/08 16:00:59;;;;;;;9.70;6.90;;;;;;;;;;5014051;28;20053;-88
2021/09/08 16:03:31;;;;;;;17.30;7.20;;;;;;;;;;5015177;28;20125;-88